sensor_id;sensor_type;location;lat;lon;timestamp;pressure;altitude;pressure_sealevel;temperature;humidity
45357;BME280;31092;51.924;21.448;2023-05-31T00:01:06;100870.72;;;10.98;100.00
45357;BME280;31092;51.924;21.448;2023-05-31T00:03:32;100924.34;;;11.19;100.00
45357;BME280;31092;51.924;21.448;2023-05-31T00:05:57;100911.94;;;11.08;100.00
45357;BME280;31092;51.924;21.448;2023-05-31T00:08:23;100841.56;;;10.66;100.00
45357;BME280;31092;51.924;21.448;2023-05-31T00:10:49;100875.00;;;10.73;100.00
45357;BME280;31092;51.924;21.448;2023-05-31T00:13:14;100929.66;;;11.11;100.00
45357;BME280;31092;51.924;21.448;2023-05-31T00:15:40;100928.16;;;10.98;100.00
45357;BME280;31092;51.924;21.448;2023-05-31T00:18:06;100924.25;;;10.93;100.00
45357;BME280;31092;51.924;21.448;2023-05-31T00:20:31;100910.81;;;10.83;100.00
45357;BME280;31092;51.924;21.448;2023-05-31T00:22:57;100927.78;;;10.93;100.00
45357;BME280;31092;51.924;21.448;2023-05-31T00:25:22;100928.53;;;10.86;100.00
45357;BME280;31092;51.924;21.448;2023-05-31T00:27:48;100840.66;;;10.29;100.00
45357;BME280;31092;51.924;21.448;2023-05-31T00:30:13;100922.66;;;10.72;100.00
45357;BME280;31092;51.924;21.448;2023-05-31T00:32:39;100928.44;;;10.77;100.00
45357;BME280;31092;51.924;21.448;2023-05-31T00:35:05;100839.66;;;10.21;100.00
45357;BME280;31092;51.924;21.448;2023-05-31T00:37:30;100926.22;;;10.63;100.00
45357;BME280;31092;51.924;21.448;2023-05-31T00:40:02;100840.31;;;10.05;100.00
45357;BME280;31092;51.924;21.448;2023-05-31T00:42:28;100942.03;;;10.48;100.00
45357;BME280;31092;51.924;21.448;2023-05-31T00:44:54;100852.56;;;9.80;100.00
45357;BME280;31092;51.924;21.448;2023-05-31T00:47:19;100861.50;;;9.71;100.00
45357;BME280;31092;51.924;21.448;2023-05-31T00:49:45;100854.75;;;9.57;100.00
45357;BME280;31092;51.924;21.448;2023-05-31T00:52:11;100852.34;;;9.44;100.00
45357;BME280;31092;51.924;21.448;2023-05-31T00:54:36;100933.84;;;9.74;100.00
45357;BME280;31092;51.924;21.448;2023-05-31T00:57:03;100856.06;;;9.04;100.00
45357;BME280;31092;51.924;21.448;2023-05-31T00:59:28;100917.28;;;9.20;100.00
45357;BME280;31092;51.924;21.448;2023-05-31T01:01:55;100938.22;;;9.07;100.00
45357;BME280;31092;51.924;21.448;2023-05-31T01:04:22;100871.34;;;8.44;100.00
45357;BME280;31092;51.924;21.448;2023-05-31T01:06:48;100854.28;;;8.24;100.00
45357;BME280;31092;51.924;21.448;2023-05-31T01:09:15;100954.97;;;8.70;100.00
45357;BME280;31092;51.924;21.448;2023-05-31T01:12:05;100956.00;;;8.48;100.00
45357;BME280;31092;51.924;21.448;2023-05-31T01:17:53;100970.28;;;8.07;100.00
45357;BME280;31092;51.924;21.448;2023-05-31T01:20:24;100944.59;;;7.83;100.00
45357;BME280;31092;51.924;21.448;2023-05-31T01:28:07;100965.53;;;7.68;100.00
45357;BME280;31092;51.924;21.448;2023-05-31T01:30:36;100955.63;;;7.48;100.00
45357;BME280;31092;51.924;21.448;2023-05-31T01:33:05;100929.06;;;7.13;100.00
45357;BME280;31092;51.924;21.448;2023-05-31T01:35:33;100963.03;;;7.24;100.00
45357;BME280;31092;51.924;21.448;2023-05-31T01:37:58;100806.25;;;6.21;100.00
45357;BME280;31092;51.924;21.448;2023-05-31T01:40:24;100946.88;;;7.03;100.00
45357;BME280;31092;51.924;21.448;2023-05-31T01:42:50;100875.53;;;6.47;100.00
45357;BME280;31092;51.924;21.448;2023-05-31T01:45:16;100973.81;;;7.01;100.00
45357;BME280;31092;51.924;21.448;2023-05-31T01:47:43;100951.09;;;6.73;100.00
45357;BME280;31092;51.924;21.448;2023-05-31T01:50:13;100928.13;;;6.48;100.00
45357;BME280;31092;51.924;21.448;2023-05-31T01:52:45;100965.81;;;6.56;100.00
45357;BME280;31092;51.924;21.448;2023-05-31T01:55:11;100973.47;;;6.50;100.00
45357;BME280;31092;51.924;21.448;2023-05-31T01:57:38;100955.13;;;6.34;100.00
45357;BME280;31092;51.924;21.448;2023-05-31T02:00:06;100883.19;;;5.84;100.00
45357;BME280;31092;51.924;21.448;2023-05-31T02:02:44;100978.69;;;6.29;100.00
45357;BME280;31092;51.924;21.448;2023-05-31T02:05:13;100984.78;;;6.31;100.00
45357;BME280;31092;51.924;21.448;2023-05-31T02:07:40;100889.97;;;5.66;100.00
45357;BME280;31092;51.924;21.448;2023-05-31T02:10:12;100995.22;;;6.22;100.00
45357;BME280;31092;51.924;21.448;2023-05-31T02:12:37;100887.00;;;5.58;100.00
45357;BME280;31092;51.924;21.448;2023-05-31T02:15:04;100998.50;;;6.15;100.00
45357;BME280;31092;51.924;21.448;2023-05-31T02:17:36;101012.13;;;6.23;100.00
45357;BME280;31092;51.924;21.448;2023-05-31T02:20:02;100916.78;;;5.64;100.00
45357;BME280;31092;51.924;21.448;2023-05-31T02:22:28;101014.53;;;6.15;100.00
45357;BME280;31092;51.924;21.448;2023-05-31T02:24:53;100935.50;;;5.64;100.00
45357;BME280;31092;51.924;21.448;2023-05-31T02:27:19;100994.31;;;5.99;100.00
45357;BME280;31092;51.924;21.448;2023-05-31T02:29:45;100982.34;;;5.81;100.00
45357;BME280;31092;51.924;21.448;2023-05-31T02:32:11;100976.38;;;5.78;100.00
45357;BME280;31092;51.924;21.448;2023-05-31T02:34:36;101001.59;;;5.97;100.00
45357;BME280;31092;51.924;21.448;2023-05-31T02:37:02;101016.47;;;6.02;100.00
45357;BME280;31092;51.924;21.448;2023-05-31T02:39:28;100965.75;;;5.65;100.00
45357;BME280;31092;51.924;21.448;2023-05-31T02:41:53;100929.94;;;5.32;100.00
45357;BME280;31092;51.924;21.448;2023-05-31T02:44:19;100901.03;;;5.02;100.00
45357;BME280;31092;51.924;21.448;2023-05-31T02:46:45;100995.88;;;5.56;100.00
45357;BME280;31092;51.924;21.448;2023-05-31T02:49:11;101008.25;;;5.57;100.00
45357;BME280;31092;51.924;21.448;2023-05-31T02:51:36;101019.19;;;5.65;100.00
45357;BME280;31092;51.924;21.448;2023-05-31T02:54:02;101007.44;;;5.43;100.00
45357;BME280;31092;51.924;21.448;2023-05-31T02:56:27;100956.63;;;5.08;100.00
45357;BME280;31092;51.924;21.448;2023-05-31T02:58:53;100956.53;;;5.10;100.00
45357;BME280;31092;51.924;21.448;2023-05-31T03:01:18;101011.72;;;5.46;100.00
45357;BME280;31092;51.924;21.448;2023-05-31T03:03:44;100914.56;;;4.88;100.00
45357;BME280;31092;51.924;21.448;2023-05-31T03:06:10;101034.16;;;5.67;100.00
45357;BME280;31092;51.924;21.448;2023-05-31T03:08:37;100955.00;;;5.18;100.00
45357;BME280;31092;51.924;21.448;2023-05-31T03:11:03;101015.00;;;5.49;100.00
45357;BME280;31092;51.924;21.448;2023-05-31T03:13:28;100938.63;;;4.99;100.00
45357;BME280;31092;51.924;21.448;2023-05-31T03:15:53;101007.34;;;5.45;100.00
45357;BME280;31092;51.924;21.448;2023-05-31T03:18:20;101039.75;;;5.64;100.00
45357;BME280;31092;51.924;21.448;2023-05-31T03:20:45;101019.69;;;5.59;100.00
45357;BME280;31092;51.924;21.448;2023-05-31T03:23:11;101031.72;;;5.64;100.00
45357;BME280;31092;51.924;21.448;2023-05-31T03:25:36;100961.88;;;5.34;100.00
45357;BME280;31092;51.924;21.448;2023-05-31T03:28:02;101047.97;;;5.85;100.00
45357;BME280;31092;51.924;21.448;2023-05-31T03:30:28;100942.78;;;5.27;100.00
45357;BME280;31092;51.924;21.448;2023-05-31T03:32:54;100974.81;;;5.51;100.00
45357;BME280;31092;51.924;21.448;2023-05-31T03:35:20;101022.59;;;5.91;100.00
45357;BME280;31092;51.924;21.448;2023-05-31T03:37:45;100947.00;;;5.53;100.00
45357;BME280;31092;51.924;21.448;2023-05-31T03:40:11;100942.06;;;5.60;100.00
45357;BME280;31092;51.924;21.448;2023-05-31T03:42:37;101043.25;;;6.24;100.00
45357;BME280;31092;51.924;21.448;2023-05-31T03:45:03;101036.84;;;6.27;100.00
45357;BME280;31092;51.924;21.448;2023-05-31T03:47:28;101043.53;;;6.43;100.00
45357;BME280;31092;51.924;21.448;2023-05-31T03:49:54;100965.78;;;6.11;100.00
45357;BME280;31092;51.924;21.448;2023-05-31T03:52:19;101008.63;;;6.45;100.00
45357;BME280;31092;51.924;21.448;2023-05-31T03:54:45;101027.63;;;6.64;100.00
45357;BME280;31092;51.924;21.448;2023-05-31T03:57:12;101017.88;;;6.63;100.00
45357;BME280;31092;51.924;21.448;2023-05-31T03:59:38;100931.63;;;6.26;100.00
45357;BME280;31092;51.924;21.448;2023-05-31T04:02:04;100942.44;;;6.36;100.00
45357;BME280;31092;51.924;21.448;2023-05-31T04:04:30;101015.94;;;6.88;100.00
45357;BME280;31092;51.924;21.448;2023-05-31T04:06:56;100946.34;;;6.54;100.00
45357;BME280;31092;51.924;21.448;2023-05-31T04:09:21;100954.72;;;6.72;100.00
45357;BME280;31092;51.924;21.448;2023-05-31T04:11:49;101039.84;;;7.34;100.00
45357;BME280;31092;51.924;21.448;2023-05-31T04:14:14;100983.03;;;7.08;100.00
45357;BME280;31092;51.924;21.448;2023-05-31T04:16:40;101042.59;;;7.55;100.00
45357;BME280;31092;51.924;21.448;2023-05-31T04:19:05;101032.22;;;7.62;100.00
45357;BME280;31092;51.924;21.448;2023-05-31T04:21:31;101044.34;;;7.77;100.00
45357;BME280;31092;51.924;21.448;2023-05-31T04:23:58;101012.94;;;7.89;100.00
45357;BME280;31092;51.924;21.448;2023-05-31T04:26:24;101012.63;;;8.03;100.00
45357;BME280;31092;51.924;21.448;2023-05-31T04:28:50;100980.06;;;8.08;100.00
45357;BME280;31092;51.924;21.448;2023-05-31T04:31:17;100883.84;;;7.73;100.00
45357;BME280;31092;51.924;21.448;2023-05-31T04:33:42;101029.88;;;8.73;100.00
45357;BME280;31092;51.924;21.448;2023-05-31T04:36:09;100961.81;;;8.53;100.00
45357;BME280;31092;51.924;21.448;2023-05-31T04:38:35;100941.38;;;8.62;100.00
45357;BME280;31092;51.924;21.448;2023-05-31T04:41:01;100940.28;;;8.84;100.00
45357;BME280;31092;51.924;21.448;2023-05-31T04:43:29;100945.84;;;9.02;100.00
45357;BME280;31092;51.924;21.448;2023-05-31T04:45:54;101030.72;;;9.64;100.00
45357;BME280;31092;51.924;21.448;2023-05-31T04:48:21;101031.97;;;9.70;100.00
45357;BME280;31092;51.924;21.448;2023-05-31T04:50:47;101034.66;;;9.99;100.00
45357;BME280;31092;51.924;21.448;2023-05-31T04:53:13;100979.88;;;9.90;100.00
45357;BME280;31092;51.924;21.448;2023-05-31T04:55:40;100937.09;;;9.77;100.00
45357;BME280;31092;51.924;21.448;2023-05-31T04:58:05;100980.66;;;10.20;100.00
45357;BME280;31092;51.924;21.448;2023-05-31T05:00:33;100940.56;;;10.17;100.00
45357;BME280;31092;51.924;21.448;2023-05-31T05:03:00;100976.47;;;10.54;100.00
45357;BME280;31092;51.924;21.448;2023-05-31T05:05:26;100962.72;;;10.58;100.00
45357;BME280;31092;51.924;21.448;2023-05-31T05:07:52;100999.41;;;10.96;100.00
45357;BME280;31092;51.924;21.448;2023-05-31T05:10:18;101011.63;;;11.18;100.00
45357;BME280;31092;51.924;21.448;2023-05-31T05:12:44;101018.75;;;11.37;100.00
45357;BME280;31092;51.924;21.448;2023-05-31T05:15:09;101002.34;;;11.48;100.00
45357;BME280;31092;51.924;21.448;2023-05-31T05:17:35;100926.88;;;11.20;100.00
45357;BME280;31092;51.924;21.448;2023-05-31T05:20:01;100947.94;;;11.53;100.00
45357;BME280;31092;51.924;21.448;2023-05-31T05:22:28;100988.19;;;12.00;100.00
45357;BME280;31092;51.924;21.448;2023-05-31T05:24:54;100921.47;;;11.74;100.00
45357;BME280;31092;51.924;21.448;2023-05-31T05:27:20;101016.00;;;12.44;100.00
45357;BME280;31092;51.924;21.448;2023-05-31T05:29:47;101008.41;;;12.48;100.00
45357;BME280;31092;51.924;21.448;2023-05-31T05:32:12;100943.81;;;12.28;100.00
45357;BME280;31092;51.924;21.448;2023-05-31T05:34:38;101003.00;;;12.74;100.00
45357;BME280;31092;51.924;21.448;2023-05-31T05:37:04;100974.25;;;12.73;100.00
45357;BME280;31092;51.924;21.448;2023-05-31T05:39:31;101002.31;;;13.06;100.00
45357;BME280;31092;51.924;21.448;2023-05-31T05:41:56;100924.09;;;12.70;100.00
45357;BME280;31092;51.924;21.448;2023-05-31T05:44:23;101017.63;;;13.31;100.00
45357;BME280;31092;51.924;21.448;2023-05-31T05:46:49;101002.13;;;13.58;100.00
45357;BME280;31092;51.924;21.448;2023-05-31T05:49:14;100958.44;;;13.45;100.00
45357;BME280;31092;51.924;21.448;2023-05-31T05:51:40;101019.78;;;14.03;100.00
45357;BME280;31092;51.924;21.448;2023-05-31T05:54:06;100951.38;;;14.09;100.00
45357;BME280;31092;51.924;21.448;2023-05-31T05:56:32;100996.84;;;14.63;100.00
45357;BME280;31092;51.924;21.448;2023-05-31T05:59:06;101003.94;;;14.80;100.00
45357;BME280;31092;51.924;21.448;2023-05-31T06:01:37;100958.72;;;14.64;100.00
45357;BME280;31092;51.924;21.448;2023-05-31T06:04:02;101001.97;;;15.05;100.00
45357;BME280;31092;51.924;21.448;2023-05-31T06:06:28;101013.91;;;15.19;100.00
45357;BME280;31092;51.924;21.448;2023-05-31T06:08:54;101008.69;;;15.40;100.00
45357;BME280;31092;51.924;21.448;2023-05-31T06:11:20;100962.25;;;15.12;100.00
45357;BME280;31092;51.924;21.448;2023-05-31T06:13:46;100988.63;;;15.26;100.00
45357;BME280;31092;51.924;21.448;2023-05-31T06:16:13;100988.28;;;15.52;100.00
45357;BME280;31092;51.924;21.448;2023-05-31T06:18:39;101004.69;;;15.90;100.00
45357;BME280;31092;51.924;21.448;2023-05-31T06:21:14;100926.78;;;15.60;100.00
45357;BME280;31092;51.924;21.448;2023-05-31T06:23:54;100997.00;;;15.94;100.00
45357;BME280;31092;51.924;21.448;2023-05-31T06:26:20;100924.56;;;15.63;100.00
45357;BME280;31092;51.924;21.448;2023-05-31T06:28:46;100985.72;;;16.20;100.00
45357;BME280;31092;51.924;21.448;2023-05-31T06:31:22;100929.75;;;16.11;100.00
45357;BME280;31092;51.924;21.448;2023-05-31T06:33:48;101003.72;;;16.88;100.00
45357;BME280;31092;51.924;21.448;2023-05-31T06:39:35;100973.19;;;16.34;100.00
45357;BME280;31092;51.924;21.448;2023-05-31T06:42:04;100986.59;;;16.35;100.00
45357;BME280;31092;51.924;21.448;2023-05-31T06:44:33;100998.75;;;16.92;100.00
45357;BME280;31092;51.924;21.448;2023-05-31T06:46:59;100991.00;;;17.25;100.00
45357;BME280;31092;51.924;21.448;2023-05-31T06:49:25;100987.59;;;17.38;100.00
45357;BME280;31092;51.924;21.448;2023-05-31T06:51:53;100892.53;;;16.70;100.00
45357;BME280;31092;51.924;21.448;2023-05-31T06:54:44;100974.44;;;17.05;100.00
45357;BME280;31092;51.924;21.448;2023-05-31T06:57:54;100924.72;;;16.67;100.00
45357;BME280;31092;51.924;21.448;2023-05-31T07:00:03;100935.50;;;17.05;100.00
45357;BME280;31092;51.924;21.448;2023-05-31T07:02:31;100985.28;;;17.56;100.00
45357;BME280;31092;51.924;21.448;2023-05-31T07:05:00;100995.66;;;17.67;100.00
45357;BME280;31092;51.924;21.448;2023-05-31T07:07:28;100970.22;;;17.60;100.00
45357;BME280;31092;51.924;21.448;2023-05-31T07:09:54;100887.66;;;17.17;100.00
45357;BME280;31092;51.924;21.448;2023-05-31T07:12:23;100975.66;;;17.39;100.00
45357;BME280;31092;51.924;21.448;2023-05-31T07:14:58;100963.75;;;17.25;100.00
45357;BME280;31092;51.924;21.448;2023-05-31T07:17:26;100961.66;;;17.42;100.00
45357;BME280;31092;51.924;21.448;2023-05-31T07:19:52;100968.97;;;17.78;100.00
45357;BME280;31092;51.924;21.448;2023-05-31T07:22:25;100895.44;;;17.63;100.00
45357;BME280;31092;51.924;21.448;2023-05-31T07:24:50;100970.44;;;18.02;100.00
45357;BME280;31092;51.924;21.448;2023-05-31T07:27:16;100962.50;;;18.07;100.00
45357;BME280;31092;51.924;21.448;2023-05-31T07:29:41;100892.22;;;17.53;100.00
45357;BME280;31092;51.924;21.448;2023-05-31T07:32:07;100942.72;;;17.98;100.00
45357;BME280;31092;51.924;21.448;2023-05-31T07:34:33;100944.03;;;18.30;100.00
45357;BME280;31092;51.924;21.448;2023-05-31T07:36:58;100955.53;;;18.60;100.00
45357;BME280;31092;51.924;21.448;2023-05-31T07:39:24;100935.00;;;18.64;100.00
45357;BME280;31092;51.924;21.448;2023-05-31T07:41:50;100890.19;;;18.46;100.00
45357;BME280;31092;51.924;21.448;2023-05-31T07:44:16;100936.47;;;18.67;100.00
45357;BME280;31092;51.924;21.448;2023-05-31T07:46:43;100933.06;;;18.58;100.00
45357;BME280;31092;51.924;21.448;2023-05-31T07:49:08;100871.41;;;18.23;100.00
45357;BME280;31092;51.924;21.448;2023-05-31T07:51:34;100923.47;;;18.69;100.00
45357;BME280;31092;51.924;21.448;2023-05-31T07:54:01;100939.63;;;19.12;100.00
45357;BME280;31092;51.924;21.448;2023-05-31T07:56:28;100866.03;;;18.84;100.00
45357;BME280;31092;51.924;21.448;2023-05-31T07:58:53;100935.47;;;19.23;100.00
45357;BME280;31092;51.924;21.448;2023-05-31T08:01:19;100938.03;;;19.44;100.00
45357;BME280;31092;51.924;21.448;2023-05-31T08:03:44;100910.13;;;19.62;100.00
45357;BME280;31092;51.924;21.448;2023-05-31T08:06:10;100859.66;;;19.25;100.00
45357;BME280;31092;51.924;21.448;2023-05-31T08:08:35;100865.50;;;19.08;100.00
45357;BME280;31092;51.924;21.448;2023-05-31T08:11:01;100914.94;;;19.47;98.23
45357;BME280;31092;51.924;21.448;2023-05-31T08:13:29;100923.19;;;19.73;97.70
45357;BME280;31092;51.924;21.448;2023-05-31T08:15:55;100895.22;;;19.65;95.06
45357;BME280;31092;51.924;21.448;2023-05-31T08:18:21;100901.53;;;19.65;93.76
45357;BME280;31092;51.924;21.448;2023-05-31T08:20:47;100840.13;;;19.48;94.54
45357;BME280;31092;51.924;21.448;2023-05-31T08:23:20;100851.03;;;19.41;91.75
45357;BME280;31092;51.924;21.448;2023-05-31T08:25:46;100918.16;;;19.83;93.94
45357;BME280;31092;51.924;21.448;2023-05-31T08:28:12;100911.63;;;19.84;92.85
45357;BME280;31092;51.924;21.448;2023-05-31T08:30:38;100921.09;;;19.89;93.04
45357;BME280;31092;51.924;21.448;2023-05-31T08:33:04;100857.97;;;19.44;92.30
45357;BME280;31092;51.924;21.448;2023-05-31T08:35:29;100825.41;;;19.49;93.58
45357;BME280;31092;51.924;21.448;2023-05-31T08:37:55;100859.66;;;19.78;92.84
45357;BME280;31092;51.924;21.448;2023-05-31T08:40:21;100856.94;;;19.58;90.02
45357;BME280;31092;51.924;21.448;2023-05-31T08:43:08;100913.75;;;19.89;91.37
45357;BME280;31092;51.924;21.448;2023-05-31T08:45:42;100900.91;;;19.90;93.19
45357;BME280;31092;51.924;21.448;2023-05-31T08:48:21;100842.44;;;19.91;92.42
45357;BME280;31092;51.924;21.448;2023-05-31T08:50:51;100841.59;;;19.97;90.75
45357;BME280;31092;51.924;21.448;2023-05-31T08:53:19;100920.00;;;20.29;89.49
45357;BME280;31092;51.924;21.448;2023-05-31T08:55:45;100925.66;;;20.41;90.48
45357;BME280;31092;51.924;21.448;2023-05-31T08:58:13;100891.22;;;20.14;86.82
45357;BME280;31092;51.924;21.448;2023-05-31T09:00:39;100867.69;;;19.99;84.85
45357;BME280;31092;51.924;21.448;2023-05-31T09:03:06;100839.69;;;19.84;82.35
45357;BME280;31092;51.924;21.448;2023-05-31T09:05:32;100851.69;;;19.76;75.24
45357;BME280;31092;51.924;21.448;2023-05-31T09:07:59;100874.81;;;20.00;76.29
45357;BME280;31092;51.924;21.448;2023-05-31T09:10:25;100838.03;;;19.96;80.58
45357;BME280;31092;51.924;21.448;2023-05-31T09:12:50;100835.69;;;20.06;81.99
45357;BME280;31092;51.924;21.448;2023-05-31T09:15:16;100820.38;;;19.92;81.50
45357;BME280;31092;51.924;21.448;2023-05-31T09:17:44;100820.97;;;19.94;83.08
45357;BME280;31092;51.924;21.448;2023-05-31T09:20:11;100809.38;;;20.05;81.65
45357;BME280;31092;51.924;21.448;2023-05-31T09:22:37;100818.13;;;20.27;80.73
45357;BME280;31092;51.924;21.448;2023-05-31T09:25:03;100809.78;;;20.16;80.30
45357;BME280;31092;51.924;21.448;2023-05-31T09:27:36;100863.78;;;20.40;82.47
45357;BME280;31092;51.924;21.448;2023-05-31T09:30:11;100860.56;;;20.63;83.40
45357;BME280;31092;51.924;21.448;2023-05-31T09:32:37;100863.38;;;20.88;79.79
45357;BME280;31092;51.924;21.448;2023-05-31T09:35:14;100845.69;;;20.91;81.07
45357;BME280;31092;51.924;21.448;2023-05-31T09:37:47;100865.16;;;21.14;79.67
45357;BME280;31092;51.924;21.448;2023-05-31T09:40:14;100850.69;;;21.00;78.63
45357;BME280;31092;51.924;21.448;2023-05-31T09:42:50;100795.97;;;20.49;78.51
45357;BME280;31092;51.924;21.448;2023-05-31T09:45:16;100869.28;;;20.92;78.76
45357;BME280;31092;51.924;21.448;2023-05-31T09:47:42;100800.19;;;20.51;80.10
45357;BME280;31092;51.924;21.448;2023-05-31T09:50:14;100878.22;;;21.50;81.22
45357;BME280;31092;51.924;21.448;2023-05-31T09:52:43;100860.53;;;21.46;73.96
45357;BME280;31092;51.924;21.448;2023-05-31T09:55:09;100785.50;;;20.84;65.15
45357;BME280;31092;51.924;21.448;2023-05-31T09:57:37;100838.72;;;20.95;66.31
45357;BME280;31092;51.924;21.448;2023-05-31T10:00:14;100831.22;;;20.77;65.41
45357;BME280;31092;51.924;21.448;2023-05-31T10:02:48;100782.28;;;20.55;66.25
45357;BME280;31092;51.924;21.448;2023-05-31T10:05:15;100842.22;;;21.09;65.08
45357;BME280;31092;51.924;21.448;2023-05-31T10:07:43;100836.69;;;21.15;65.44
45357;BME280;31092;51.924;21.448;2023-05-31T10:10:09;100849.50;;;21.21;65.18
45357;BME280;31092;51.924;21.448;2023-05-31T10:13:01;100866.22;;;21.70;67.63
45357;BME280;31092;51.924;21.448;2023-05-31T10:15:35;100851.16;;;21.61;62.35
45357;BME280;31092;51.924;21.448;2023-05-31T10:18:13;100783.88;;;21.33;61.04
45357;BME280;31092;51.924;21.448;2023-05-31T10:20:43;100857.03;;;21.64;59.36
45357;BME280;31092;51.924;21.448;2023-05-31T10:23:23;100851.59;;;21.58;58.05
45357;BME280;31092;51.924;21.448;2023-05-31T10:28:28;100774.34;;;21.86;56.53
45357;BME280;31092;51.924;21.448;2023-05-31T10:30:57;100845.72;;;22.22;51.10
45357;BME280;31092;51.924;21.448;2023-05-31T10:33:27;100804.22;;;21.94;50.40
45357;BME280;31092;51.924;21.448;2023-05-31T10:35:59;100847.13;;;22.07;47.13
45357;BME280;31092;51.924;21.448;2023-05-31T10:38:30;100795.47;;;21.60;46.12
45357;BME280;31092;51.924;21.448;2023-05-31T10:41:02;100836.47;;;21.98;47.59
45357;BME280;31092;51.924;21.448;2023-05-31T10:43:40;100785.75;;;21.64;44.96
45357;BME280;31092;51.924;21.448;2023-05-31T10:46:21;100830.50;;;22.02;43.35
45357;BME280;31092;51.924;21.448;2023-05-31T10:49:09;100841.66;;;22.07;41.10
45357;BME280;31092;51.924;21.448;2023-05-31T10:51:43;100781.34;;;21.82;43.65
45357;BME280;31092;51.924;21.448;2023-05-31T10:54:29;100785.63;;;21.78;41.44
45357;BME280;31092;51.924;21.448;2023-05-31T10:56:57;100804.06;;;21.89;41.16
45357;BME280;31092;51.924;21.448;2023-05-31T10:59:24;100762.94;;;21.89;40.48
45357;BME280;31092;51.924;21.448;2023-05-31T11:01:51;100843.19;;;22.58;42.05
45357;BME280;31092;51.924;21.448;2023-05-31T11:04:21;100786.00;;;22.55;41.43
45357;BME280;31092;51.924;21.448;2023-05-31T11:06:52;100821.94;;;22.83;41.34
45357;BME280;31092;51.924;21.448;2023-05-31T11:09:18;100793.53;;;22.89;43.35
45357;BME280;31092;51.924;21.448;2023-05-31T11:11:44;100833.53;;;23.15;41.91
45357;BME280;31092;51.924;21.448;2023-05-31T11:19:20;100826.88;;;22.63;33.64
45357;BME280;31092;51.924;21.448;2023-05-31T11:21:56;100790.59;;;22.42;35.05
45357;BME280;31092;51.924;21.448;2023-05-31T11:24:32;100827.38;;;22.41;35.34
45357;BME280;31092;51.924;21.448;2023-05-31T11:27:00;100796.41;;;22.16;36.27
45357;BME280;31092;51.924;21.448;2023-05-31T11:32:10;100757.44;;;22.26;38.76
45357;BME280;31092;51.924;21.448;2023-05-31T11:37:15;100798.59;;;22.92;36.71
45357;BME280;31092;51.924;21.448;2023-05-31T11:39:44;100753.16;;;22.78;35.96
45357;BME280;31092;51.924;21.448;2023-05-31T11:42:10;100797.53;;;22.93;32.83
45357;BME280;31092;51.924;21.448;2023-05-31T11:44:45;100799.72;;;23.03;34.49
45357;BME280;31092;51.924;21.448;2023-05-31T11:47:20;100728.69;;;22.88;35.74
45357;BME280;31092;51.924;21.448;2023-05-31T11:49:46;100794.16;;;23.33;36.19
45357;BME280;31092;51.924;21.448;2023-05-31T11:52:16;100725.28;;;23.05;35.28
45357;BME280;31092;51.924;21.448;2023-05-31T11:54:44;100723.41;;;23.17;36.37
45357;BME280;31092;51.924;21.448;2023-05-31T11:57:11;100780.66;;;23.32;35.72
45357;BME280;31092;51.924;21.448;2023-05-31T11:59:38;100715.38;;;23.04;35.64
45357;BME280;31092;51.924;21.448;2023-05-31T12:02:08;100750.53;;;23.37;34.83
45357;BME280;31092;51.924;21.448;2023-05-31T12:04:36;100700.69;;;23.22;35.95
45357;BME280;31092;51.924;21.448;2023-05-31T12:07:10;100778.41;;;23.52;32.47
45357;BME280;31092;51.924;21.448;2023-05-31T12:09:35;100713.97;;;23.25;33.08
45357;BME280;31092;51.924;21.448;2023-05-31T12:12:02;100760.81;;;23.65;34.60
45357;BME280;31092;51.924;21.448;2023-05-31T12:14:29;100773.50;;;23.54;33.15
45357;BME280;31092;51.924;21.448;2023-05-31T12:16:55;100767.97;;;23.19;32.70
45357;BME280;31092;51.924;21.448;2023-05-31T12:19:21;100758.00;;;22.94;31.06
45357;BME280;31092;51.924;21.448;2023-05-31T12:21:47;100679.97;;;22.42;31.07
45357;BME280;31092;51.924;21.448;2023-05-31T12:24:17;100704.72;;;22.54;32.28
45357;BME280;31092;51.924;21.448;2023-05-31T12:26:46;100749.59;;;22.89;33.90
45357;BME280;31092;51.924;21.448;2023-05-31T12:29:16;100686.47;;;22.29;33.01
45357;BME280;31092;51.924;21.448;2023-05-31T12:31:42;100673.84;;;21.91;35.24
45357;BME280;31092;51.924;21.448;2023-05-31T12:34:11;100750.88;;;22.27;33.10
45357;BME280;31092;51.924;21.448;2023-05-31T12:39:12;100748.09;;;22.63;33.31
45357;BME280;31092;51.924;21.448;2023-05-31T12:41:41;100691.97;;;22.59;33.26
45357;BME280;31092;51.924;21.448;2023-05-31T12:44:08;100739.38;;;23.08;32.52
45357;BME280;31092;51.924;21.448;2023-05-31T12:46:38;100694.38;;;22.67;30.38
45357;BME280;31092;51.924;21.448;2023-05-31T12:49:20;100720.56;;;22.82;31.98
45357;BME280;31092;51.924;21.448;2023-05-31T12:51:58;100744.19;;;23.13;31.07
45357;BME280;31092;51.924;21.448;2023-05-31T12:54:25;100734.50;;;23.10;30.26
45357;BME280;31092;51.924;21.448;2023-05-31T12:56:52;100671.84;;;22.89;31.32
45357;BME280;31092;51.924;21.448;2023-05-31T12:59:18;100711.56;;;23.05;31.33
45357;BME280;31092;51.924;21.448;2023-05-31T13:01:44;100699.53;;;22.76;31.33
45357;BME280;31092;51.924;21.448;2023-05-31T13:04:10;100699.41;;;22.70;31.01
45357;BME280;31092;51.924;21.448;2023-05-31T13:06:38;100665.56;;;22.58;32.72
45357;BME280;31092;51.924;21.448;2023-05-31T13:09:04;100656.75;;;22.56;31.69